Uniontown, Kansas
Current Conditions -  °F | °C
As of 6:52 AM on Friday 24 Oct 2014 (Local Time) from KCNU Reporting Station
Overcast Overcast  
Wind Chill: 57°   Ceiling: 4100
Heat Index: 57°   Visibility: 9mi
Dew Point: 55°   Wind: 8mph
Humidity: 93%   Direction: 180°S
Pressure: 30.08"   Gusts: NA
Location:  37.85°N, 94.98°W
Report Text: KCNU 241152Z AUTO 18007KT 9SM OVC041 14/13 A3008 RMK AO2 SLP183 T01390128 10139 20117 55003
Loading
Personal Weather Stations






























Interactive Weather Map
Tropical Storm Tracking
New forecast layout! Learn more

10-Day Weather Forecast

Advertisements
Track Severe Weather on mobile